Nearby METAR Reports

 

KIAG - Niagara Falls, New York, USA
Distance from station: W 12mi, 20km
Updated: 10/27/2020 3:53pm
Overcast
Overcast
 Wind from WNW
Wind: WNW 12 mph , 19 km/h
Temperature: 46°F , 8°C
Wind Chill: 40°F , 4°C
Dew Point: 34°F , 1°C
Humidity: 62%
Barometer: 1021.7 hPa
Clouds: Overcast
Visibility: 10 miles , 16 km
Cloud details: Overcast 4400 ft
2020/10/27 19:53 KIAG 271953Z 29010KT 10SM OVC044 08/01 A3017 RMK AO2 SLP225 T00780011
KBUF - Buffalo/Cheektow, New York, USA
Distance from station: S 13mi, 21km
Updated: 10/27/2020 3:54pm
Overcast
Overcast
 Wind from W
Wind: W 9 mph , 15 km/h
Temperature: 48°F , 9°C
Wind Chill: 44°F , 7°C
Dew Point: 36°F , 2°C
Humidity: 62%
Barometer: 1021.3 hPa
Clouds: Overcast
Visibility: 10 miles , 16 km
Cloud details: Few Clouds 2500 ft
Few Clouds 4700 ft
Overcast 6500 ft
2020/10/27 19:54 KBUF 271954Z 26008KT 10SM FEW025 FEW047 OVC065 09/02 A3016 RMK AO2 SLP218 T00890017
 
KROC - Rochester, New York, USA
Distance from station: E 51mi, 82km
Updated: 10/27/2020 3:54pm
Overcast
Overcast
 Wind from W
Wind: W 5 mph , 7 km/h
Temperature: 46°F , 8°C
Wind Chill: 44°F , 7°C
Dew Point: 39°F , 4°C
Humidity: 76%
Barometer: 1021.3 hPa
Clouds: Overcast
Visibility: 10 miles , 16 km
Cloud details: Mostly cloudy 4200 ft
Overcast 6000 ft
2020/10/27 19:54 KROC 271954Z 28004KT 10SM BKN042 OVC060 08/04 A3016 RMK AO2 RAB16E29 SLP221 P0000 T00830039
CYSN - St. Catharines A, Ontario, Canada
Distance from station: WNW 25mi, 40km
Updated: 10/27/2020 4:00pm
Light rain, Overcast
Light rain, Overcast
 Wind from W
Wind: W 10 mph , 17 km/h
Temperature: 46°F , 8°C
Wind Chill: 41°F , 5°C
Dew Point: 36°F , 2°C
Humidity: 66%
Barometer: 1022 hPa
Summary: Light rain
Clouds: Overcast
Visibility: 12 miles , 19 km
Cloud details: Overcast 4200 ft
2020/10/27 20:00 CYSN 272000Z 26009KT 12SM -RA OVC042 08/02 A3018 RMK SC8 SLP222
 
KOLE - Olean, New York, USA
Distance from station: SSE 63mi, 102km
Updated: 10/27/2020 4:35pm
Overcast
Overcast
 Wind from calm
Wind: Calm
Temperature: 41°F , 5°C
Dew Point: 37°F , 3°C
Humidity: 87%
Barometer: 1020.7 hPa
Clouds: Overcast
Visibility: 10 miles , 16 km
Cloud details: Overcast 4000 ft
2020/10/27 20:35 KOLE 272035Z AUTO 00000KT 10SM OVC040 05/03 A3014 RMK AO2
KJHW - Jamestown, New York, USA
Distance from station: SSW 74mi, 119km
Updated: 10/27/2020 4:47pm
Overcast
Overcast
 Wind from W
Wind: W 7 mph , 11 km/h
Temperature: 43°F , 6°C
Wind Chill: 39°F , 4°C
Dew Point: 37°F , 3°C
Humidity: 81%
Barometer: 1021.3 hPa
Clouds: Overcast
Visibility: 10 miles , 16 km
Cloud details: Mostly cloudy 2100 ft
Overcast 3600 ft
2020/10/27 20:47 KJHW 272047Z AUTO 27006KT 10SM BKN021 OVC036 06/03 A3016 RMK AO2
 
CWWZ - Port Weller (mar, Ontario, Canada
Distance from station: WNW 28mi, 45km
Updated: 10/27/2020 4:00pm

 Wind from W
Wind: W 16 mph , 26 km/h
Temperature: 46°F , 8°C
Wind Chill: 39°F , 4°C
Dew Point: 39°F , 4°C
Humidity: 76%
2020/10/27 20:00 CWWZ 272000Z AUTO 26014KT 08/04 RMK AO1 PK WND 28017/1944 SLP223 T00800044 55010
CWPC - Port Colborne(Au, Ontario, Canada
Distance from station: WSW 33mi, 53km
Updated: 10/27/2020 4:00pm

 Wind from NW
Wind: NW 13 mph , 20 km/h
Temperature: 46°F , 8°C
Wind Chill: 40°F , 4°C
Dew Point: 36°F , 2°C
Humidity: 66%
2020/10/27 20:00 CWPC 272000Z AUTO 31011KT 08/02 RMK AO1 SLP226 T00820024 56013
 
CXVN - Vineland (au8), Ontario, Canada
Distance from station: W 36mi, 58km
Updated: 10/27/2020 4:00pm

 Wind from W
Wind: W 7 mph , 11 km/h
Temperature: 45°F , 7°C
Wind Chill: 41°F , 5°C
Dew Point: 37°F , 3°C
Humidity: 76%
2020/10/27 20:00 CXVN 272000Z AUTO 26006KT 07/03 RMK AO1 SLP225 T00740027 55007
CYTZ - Toronto Il Vor, Ontario, Canada
Distance from station: NW 50mi, 81km
Updated: 10/27/2020 4:54pm
Light rain, Overcast
Light rain, Overcast
 Wind from W
Wind: W 7 mph , 11 km/h
Temperature: 43°F , 6°C
Wind Chill: 39°F , 4°C
Dew Point: 39°F , 4°C
Humidity: 87%
Barometer: 1021.7 hPa
Summary: Light rain
Clouds: Overcast
Visibility: 9 miles , 14 km
Cloud details: Few Clouds 1400 ft
Partly cloudy 2100 ft
Overcast 3400 ft
2020/10/27 20:54 CYTZ 272054Z AUTO 26006KT 9SM -RA FEW014 SCT021 OVC034 06/04 A3017 RMK SLP220
 
CXTO - Toronto City, Ontario, Canada
Distance from station: NW 52mi, 84km
Updated: 10/27/2020 9:00am
NOT Current

 
Temperature: 43°F , 6°C
Dew Point: 36°F , 2°C
Humidity: 76%
2020/10/27 13:00 CXTO 271300Z AUTO 06/02 RMK AO1 SLP254 T00590020 53006
KDKK - Dunkirk, New York, USA
Distance from station: SW 52mi, 84km
Updated: 10/27/2020 4:46pm
Light rain, Overcast
Light rain, Overcast
 Wind from WNW
Wind: WNW 7 mph , 11 km/h
Temperature: 46°F , 8°C
Wind Chill: 42°F , 6°C
Dew Point: 41°F , 5°C
Humidity: 82%
Barometer: 1022 hPa
Summary: Light rain
Clouds: Overcast
Visibility: 4 miles , 6 km
Cloud details: Mostly cloudy 1600 ft
Overcast 2100 ft
2020/10/27 20:46 KDKK 272046Z AUTO 29006KT 4SM -RA BKN016 OVC021 08/05 A3018 RMK AO2 P0005 T00780050 $
 
CYOO - Oshawa, Ontario, Canada
Distance from station: N 56mi, 90km
Updated: 10/27/2020 4:11pm
Light rain, Overcast
Light rain, Overcast
 Wind from ENE
Wind: ENE 6 mph , 9 km/h
Temperature: 37°F , 3°C
Wind Chill: 32°F , 0°C
Dew Point: 37°F , 3°C
Humidity: 100%
Barometer: 1022 hPa
Summary: Light rain
Clouds: Overcast
Visibility: 9 miles , 14 km
Cloud details: Partly cloudy 900 ft
Mostly cloudy 1500 ft
Overcast 2900 ft
2020/10/27 20:11 CYOO 272011Z AUTO 07005KT 9SM -RA SCT009 BKN015 OVC029 03/03 A3018 RMK SLP226
CWWB - Burlington Piers, Ontario, Canada
Distance from station: WNW 56mi, 91km
Updated: 10/27/2020 4:00pm

 Wind from W
Wind: W 6 mph , 9 km/h
Temperature: 45°F , 7°C
Wind Chill: 42°F , 6°C
Dew Point: 39°F , 4°C
Humidity: 81%
2020/10/27 20:00 CWWB 272000Z AUTO 26005KT 07/04 RMK AO1 SLP222 T00730035 55008
 
CYYZ - Toronto/Pearson, Ontario, Canada
Distance from station: NW 60mi, 96km
Updated: 10/27/2020 4:00pm
Light rain, Overcast
Light rain, Overcast
 Wind from W
Wind: W 13 mph , 20 km/h
Temperature: 43°F , 6°C
Wind Chill: 36°F , 2°C
Dew Point: 39°F , 4°C
Humidity: 87%
Barometer: 1021.7 hPa
Summary: Light rain
Clouds: Overcast
Visibility: 10 miles , 16 km
Cloud details: Few Clouds 2000 ft
Overcast 3400 ft
2020/10/27 20:00 CYYZ 272000Z 27011KT 10SM -RA FEW020 OVC034 06/04 A3017 RMK CF2SC6 SLP224
CYKZ - Toronto Buttonvi, Ontario, Canada
Distance from station: NW 62mi, 99km
Updated: 01/03/2019 4:00am
NOT Current
Partly cloudy
Partly cloudy
 Wind from WSW
Wind: WSW 5 mph , 7 km/h
Temperature: 27°F , -3°C
Wind Chill: 21°F , -6°C
Dew Point: 23°F , -5°C
Humidity: 86%
Barometer: 1010.8 hPa
Clouds: Partly cloudy
Visibility: 15 miles , 24 km
Cloud details: Partly cloudy 4000 ft
2019/01/03 09:00 CYKZ 030900Z 25004KT 15SM SCT040 M03/M05 A2985 RMK SC3 LAST STFD OBS FAREWELL SLP118
 
CXHM - Hamilton Rbg Cs, Ontario, Canada
Distance from station: W 62mi, 100km
Updated: 10/27/2020 4:00pm

 Wind from W
Wind: W 6 mph , 9 km/h
Temperature: 45°F , 7°C
Wind Chill: 42°F , 6°C
Dew Point: 39°F , 4°C
Humidity: 81%
2020/10/27 20:00 CXHM 272000Z AUTO 28005KT 07/04 RMK AO1 2PAST HR 6006 SLP224 P0001 T00660035 50002
KDSV - Dansville, New York, USA
Distance from station: SE 62mi, 100km
Updated: 10/27/2020 3:54pm
Overcast
Overcast
 Wind from NNW
Wind: NNW 7 mph , 11 km/h
Temperature: 48°F , 9°C
Wind Chill: 45°F , 7°C
Dew Point: 39°F , 4°C
Humidity: 71%
Barometer: 1021 hPa
Clouds: Overcast
Visibility: 10 miles , 16 km
Cloud details: Overcast 3700 ft
2020/10/27 19:54 KDSV 271954Z AUTO 34006KT 10SM OVC037 09/04 A3015 RMK AO2 SLP222 T00940044
 
CYHM - Hamilton Airport, Ontario, Canada
Distance from station: W 63mi, 101km
Updated: 10/27/2020 4:15pm
Light rain, Overcast
Light rain, Overcast
 Wind from WSW
Wind: WSW 8 mph , 13 km/h
Temperature: 41°F , 5°C
Wind Chill: 36°F , 2°C
Dew Point: 39°F , 4°C
Humidity: 93%
Barometer: 1022 hPa
Summary: Light rain
Clouds: Overcast
Visibility: 15 miles , 24 km
Cloud details: Overcast 1300 ft
2020/10/27 20:15 CYHM 272015Z 25007KT 15SM -RA OVC013 05/04 A3018 RMK SC8 SLP227
CWNC - Cobourg (mars), Ontario, Canada
Distance from station: NNE 63mi, 102km
Updated: 10/27/2020 4:00pm

 Wind from NE
Wind: NE 3 mph , 6 km/h
Temperature: 36°F , 2°C
Dew Point: 34°F , 1°C
Humidity: 93%
2020/10/27 20:00 CWNC 272000Z AUTO 04003KT 02/01 RMK AO1 8PAST HR 5011 SLP234 P0003 T00180006 50010